sensor_id;sensor_type;location;lat;lon;timestamp;pressure;altitude;pressure_sealevel;temperature;humidity
7990;BME280;4040;42.848;23.034;2023-01-26T00:01:56;95389.03;;;0.38;100.00
7990;BME280;4040;42.848;23.034;2023-01-26T00:04:23;95397.56;;;0.43;100.00
7990;BME280;4040;42.848;23.034;2023-01-26T00:06:51;95392.97;;;0.52;100.00
7990;BME280;4040;42.848;23.034;2023-01-26T00:09:18;95401.59;;;0.49;100.00
7990;BME280;4040;42.848;23.034;2023-01-26T00:11:47;95396.28;;;0.49;100.00
7990;BME280;4040;42.848;23.034;2023-01-26T00:14:14;95401.13;;;0.47;100.00
7990;BME280;4040;42.848;23.034;2023-01-26T00:16:41;95402.88;;;0.43;100.00
7990;BME280;4040;42.848;23.034;2023-01-26T00:19:08;95392.13;;;0.40;100.00
7990;BME280;4040;42.848;23.034;2023-01-26T00:21:36;95387.63;;;0.40;100.00
7990;BME280;4040;42.848;23.034;2023-01-26T00:24:03;95383.16;;;0.32;100.00
7990;BME280;4040;42.848;23.034;2023-01-26T00:26:30;95393.31;;;0.30;100.00
7990;BME280;4040;42.848;23.034;2023-01-26T00:28:59;95393.97;;;0.27;100.00
7990;BME280;4040;42.848;23.034;2023-01-26T00:31:27;95384.19;;;0.19;100.00
7990;BME280;4040;42.848;23.034;2023-01-26T00:33:55;95373.28;;;0.21;100.00
7990;BME280;4040;42.848;23.034;2023-01-26T00:36:22;95381.91;;;0.30;100.00
7990;BME280;4040;42.848;23.034;2023-01-26T00:38:50;95371.22;;;0.26;100.00
7990;BME280;4040;42.848;23.034;2023-01-26T00:41:17;95363.06;;;0.31;100.00
7990;BME280;4040;42.848;23.034;2023-01-26T00:44:03;95359.03;;;0.25;100.00
7990;BME280;4040;42.848;23.034;2023-01-26T00:46:30;95285.00;;;-0.32;100.00
7990;BME280;4040;42.848;23.034;2023-01-26T00:48:58;95349.31;;;0.17;100.00
7990;BME280;4040;42.848;23.034;2023-01-26T00:51:25;95356.59;;;0.20;100.00
7990;BME280;4040;42.848;23.034;2023-01-26T00:53:52;95351.31;;;0.20;100.00
7990;BME280;4040;42.848;23.034;2023-01-26T00:56:19;95350.22;;;0.21;100.00
7990;BME280;4040;42.848;23.034;2023-01-26T00:58:47;95361.75;;;0.17;100.00
7990;BME280;4040;42.848;23.034;2023-01-26T01:01:15;95348.84;;;0.15;100.00
7990;BME280;4040;42.848;23.034;2023-01-26T01:03:43;95348.84;;;0.15;100.00
7990;BME280;4040;42.848;23.034;2023-01-26T01:06:10;95352.41;;;0.19;100.00
7990;BME280;4040;42.848;23.034;2023-01-26T01:08:37;95338.72;;;0.17;100.00
7990;BME280;4040;42.848;23.034;2023-01-26T01:11:06;95343.66;;;0.19;100.00
7990;BME280;4040;42.848;23.034;2023-01-26T01:13:34;95342.00;;;0.14;100.00
7990;BME280;4040;42.848;23.034;2023-01-26T01:16:04;95342.91;;;0.18;100.00
7990;BME280;4040;42.848;23.034;2023-01-26T01:18:33;95346.00;;;0.20;100.00
7990;BME280;4040;42.848;23.034;2023-01-26T01:21:05;95345.13;;;0.16;100.00
7990;BME280;4040;42.848;23.034;2023-01-26T01:23:32;95332.84;;;0.12;100.00
7990;BME280;4040;42.848;23.034;2023-01-26T01:25:59;95327.41;;;0.08;100.00
7990;BME280;4040;42.848;23.034;2023-01-26T01:28:27;95327.41;;;0.08;100.00
7990;BME280;4040;42.848;23.034;2023-01-26T01:30:54;95335.78;;;0.10;100.00
7990;BME280;4040;42.848;23.034;2023-01-26T01:33:22;95331.91;;;0.08;100.00
7990;BME280;4040;42.848;23.034;2023-01-26T01:35:58;95330.50;;;0.10;100.00
7990;BME280;4040;42.848;23.034;2023-01-26T01:38:26;95274.06;;;-0.22;100.00
7990;BME280;4040;42.848;23.034;2023-01-26T01:40:54;95311.53;;;0.08;100.00
7990;BME280;4040;42.848;23.034;2023-01-26T01:43:22;95322.09;;;0.08;100.00
7990;BME280;4040;42.848;23.034;2023-01-26T01:45:50;95322.09;;;0.08;100.00
7990;BME280;4040;42.848;23.034;2023-01-26T01:48:22;95257.66;;;-0.36;100.00
7990;BME280;4040;42.848;23.034;2023-01-26T01:50:53;95338.00;;;0.08;100.00
7990;BME280;4040;42.848;23.034;2023-01-26T01:53:25;95330.50;;;0.10;100.00
7990;BME280;4040;42.848;23.034;2023-01-26T01:55:56;95240.56;;;-0.47;100.00
7990;BME280;4040;42.848;23.034;2023-01-26T01:58:26;95318.75;;;-0.01;100.00
7990;BME280;4040;42.848;23.034;2023-01-26T02:00:54;95309.03;;;0.03;100.00
7990;BME280;4040;42.848;23.034;2023-01-26T02:03:24;95310.59;;;0.04;100.00
7990;BME280;4040;42.848;23.034;2023-01-26T02:05:56;95297.84;;;0.06;100.00
7990;BME280;4040;42.848;23.034;2023-01-26T02:08:30;95297.84;;;0.06;100.00
7990;BME280;4040;42.848;23.034;2023-01-26T02:11:03;95219.63;;;-0.52;100.00
7990;BME280;4040;42.848;23.034;2023-01-26T02:13:31;95294.25;;;0.02;100.00
7990;BME280;4040;42.848;23.034;2023-01-26T02:15:59;95300.00;;;0.04;100.00
7990;BME280;4040;42.848;23.034;2023-01-26T02:18:27;95274.97;;;0.02;100.00
7990;BME280;4040;42.848;23.034;2023-01-26T02:20:57;95247.19;;;-0.12;100.00
7990;BME280;4040;42.848;23.034;2023-01-26T02:23:34;95274.59;;;0.12;100.00
7990;BME280;4040;42.848;23.034;2023-01-26T02:26:06;95234.75;;;-0.32;100.00
7990;BME280;4040;42.848;23.034;2023-01-26T02:28:36;95264.75;;;-0.08;100.00
7990;BME280;4040;42.848;23.034;2023-01-26T02:31:04;95270.44;;;0.02;100.00
7990;BME280;4040;42.848;23.034;2023-01-26T02:33:32;95273.81;;;-0.09;100.00
7990;BME280;4040;42.848;23.034;2023-01-26T02:36:00;95254.03;;;-0.11;100.00
7990;BME280;4040;42.848;23.034;2023-01-26T02:38:36;95250.50;;;-0.15;100.00
7990;BME280;4040;42.848;23.034;2023-01-26T02:41:07;95260.22;;;-0.08;100.00
7990;BME280;4040;42.848;23.034;2023-01-26T02:43:35;95254.69;;;-0.14;100.00
7990;BME280;4040;42.848;23.034;2023-01-26T02:46:01;95250.16;;;-0.14;100.00
7990;BME280;4040;42.848;23.034;2023-01-26T02:48:29;95241.91;;;-0.12;100.00
7990;BME280;4040;42.848;23.034;2023-01-26T02:51:13;95244.72;;;-0.17;100.00
7990;BME280;4040;42.848;23.034;2023-01-26T02:53:41;95233.25;;;-0.21;100.00
7990;BME280;4040;42.848;23.034;2023-01-26T02:56:09;95222.66;;;-0.21;100.00
7990;BME280;4040;42.848;23.034;2023-01-26T02:58:35;95215.97;;;-0.19;100.00
7990;BME280;4040;42.848;23.034;2023-01-26T03:01:03;95219.06;;;-0.17;100.00
7990;BME280;4040;42.848;23.034;2023-01-26T03:03:30;95220.59;;;-0.16;100.00
7990;BME280;4040;42.848;23.034;2023-01-26T03:06:11;95223.16;;;-0.08;100.00
7990;BME280;4040;42.848;23.034;2023-01-26T03:08:40;95218.53;;;-0.10;100.00
7990;BME280;4040;42.848;23.034;2023-01-26T03:11:09;95217.38;;;-0.21;100.00
7990;BME280;4040;42.848;23.034;2023-01-26T03:13:36;95185.13;;;-0.35;100.00
7990;BME280;4040;42.848;23.034;2023-01-26T03:16:06;95198.28;;;-0.27;100.00
7990;BME280;4040;42.848;23.034;2023-01-26T03:18:35;95236.47;;;-0.16;100.00
7990;BME280;4040;42.848;23.034;2023-01-26T03:21:19;95182.47;;;-0.35;100.00
7990;BME280;4040;42.848;23.034;2023-01-26T03:24:04;95187.28;;;-0.37;100.00
7990;BME280;4040;42.848;23.034;2023-01-26T03:26:50;95207.94;;;-0.10;100.00
7990;BME280;4040;42.848;23.034;2023-01-26T03:29:35;95204.28;;;-0.18;100.00
7990;BME280;4040;42.848;23.034;2023-01-26T03:32:02;95201.28;;;-0.16;100.00
7990;BME280;4040;42.848;23.034;2023-01-26T03:34:30;95189.63;;;-0.15;100.00
7990;BME280;4040;42.848;23.034;2023-01-26T03:36:57;95160.00;;;-0.29;100.00
7990;BME280;4040;42.848;23.034;2023-01-26T03:39:24;95198.75;;;-0.13;100.00
7990;BME280;4040;42.848;23.034;2023-01-26T03:42:10;95196.06;;;-0.04;100.00
7990;BME280;4040;42.848;23.034;2023-01-26T03:44:54;95183.41;;;-0.19;100.00
7990;BME280;4040;42.848;23.034;2023-01-26T03:47:39;95191.16;;;-0.14;100.00
7990;BME280;4040;42.848;23.034;2023-01-26T03:50:23;95189.41;;;-0.10;100.00
7990;BME280;4040;42.848;23.034;2023-01-26T03:53:13;95187.66;;;-0.07;100.00
7990;BME280;4040;42.848;23.034;2023-01-26T03:55:57;95185.88;;;-0.14;100.00
7990;BME280;4040;42.848;23.034;2023-01-26T03:58:49;95176.19;;;-0.10;100.00
7990;BME280;4040;42.848;23.034;2023-01-26T04:01:18;95185.47;;;-0.04;100.00
7990;BME280;4040;42.848;23.034;2023-01-26T04:03:47;95182.25;;;-0.10;100.00
7990;BME280;4040;42.848;23.034;2023-01-26T04:06:32;95109.63;;;-0.53;100.00
7990;BME280;4040;42.848;23.034;2023-01-26T04:09:17;95164.41;;;-0.01;100.00
7990;BME280;4040;42.848;23.034;2023-01-26T04:11:45;95148.84;;;-0.03;100.00
7990;BME280;4040;42.848;23.034;2023-01-26T04:14:14;95145.56;;;0.00;100.00
7990;BME280;4040;42.848;23.034;2023-01-26T04:17:01;95149.31;;;-0.01;100.00
7990;BME280;4040;42.848;23.034;2023-01-26T04:19:45;95138.91;;;-0.06;100.00
7990;BME280;4040;42.848;23.034;2023-01-26T04:22:30;95142.66;;;-0.07;100.00
7990;BME280;4040;42.848;23.034;2023-01-26T04:24:57;95145.41;;;-0.03;100.00
7990;BME280;4040;42.848;23.034;2023-01-26T04:27:24;95128.13;;;-0.01;100.00
7990;BME280;4040;42.848;23.034;2023-01-26T04:29:53;95136.25;;;-0.06;100.00
7990;BME280;4040;42.848;23.034;2023-01-26T04:32:20;95140.25;;;0.00;100.00
7990;BME280;4040;42.848;23.034;2023-01-26T04:34:47;95062.88;;;-0.49;100.00
7990;BME280;4040;42.848;23.034;2023-01-26T04:37:14;95140.25;;;0.00;100.00
7990;BME280;4040;42.848;23.034;2023-01-26T04:39:42;95138.72;;;-0.01;100.00
7990;BME280;4040;42.848;23.034;2023-01-26T04:42:09;95138.72;;;-0.01;100.00
7990;BME280;4040;42.848;23.034;2023-01-26T04:44:36;95129.53;;;-0.03;100.00
7990;BME280;4040;42.848;23.034;2023-01-26T04:47:05;95142.25;;;0.03;100.00
7990;BME280;4040;42.848;23.034;2023-01-26T04:49:32;95139.59;;;0.03;100.00
7990;BME280;4040;42.848;23.034;2023-01-26T04:51:59;95144.69;;;0.08;100.00
7990;BME280;4040;42.848;23.034;2023-01-26T04:54:26;95144.25;;;0.06;100.00
7990;BME280;4040;42.848;23.034;2023-01-26T04:56:54;95152.53;;;0.05;100.00
7990;BME280;4040;42.848;23.034;2023-01-26T04:59:21;95150.19;;;0.03;100.00
7990;BME280;4040;42.848;23.034;2023-01-26T05:01:48;95150.44;;;0.10;100.00
7990;BME280;4040;42.848;23.034;2023-01-26T05:04:17;95147.34;;;0.08;100.00
7990;BME280;4040;42.848;23.034;2023-01-26T05:06:44;95153.50;;;0.00;100.00
7990;BME280;4040;42.848;23.034;2023-01-26T05:09:12;95141.81;;;0.01;100.00
7990;BME280;4040;42.848;23.034;2023-01-26T05:11:39;95138.19;;;0.06;100.00
7990;BME280;4040;42.848;23.034;2023-01-26T05:14:06;95135.09;;;0.04;100.00
7990;BME280;4040;42.848;23.034;2023-01-26T05:16:33;95146.03;;;0.14;100.00
7990;BME280;4040;42.848;23.034;2023-01-26T05:19:01;95074.00;;;-0.35;100.00
7990;BME280;4040;42.848;23.034;2023-01-26T05:21:29;95145.38;;;0.17;100.00
7990;BME280;4040;42.848;23.034;2023-01-26T05:23:56;95121.28;;;-0.02;100.00
7990;BME280;4040;42.848;23.034;2023-01-26T05:26:24;95141.63;;;0.06;100.00
7990;BME280;4040;42.848;23.034;2023-01-26T05:28:51;95140.50;;;0.07;100.00
7990;BME280;4040;42.848;23.034;2023-01-26T05:31:18;95132.00;;;0.02;100.00
7990;BME280;4040;42.848;23.034;2023-01-26T05:33:45;94956.69;;;-1.04;100.00
7990;BME280;4040;42.848;23.034;2023-01-26T05:36:13;95128.25;;;0.03;100.00
7990;BME280;4040;42.848;23.034;2023-01-26T05:38:41;95128.38;;;0.06;100.00
7990;BME280;4040;42.848;23.034;2023-01-26T05:41:08;95121.94;;;-0.04;100.00
7990;BME280;4040;42.848;23.034;2023-01-26T05:43:36;95121.28;;;-0.02;100.00
7990;BME280;4040;42.848;23.034;2023-01-26T05:46:04;95116.00;;;-0.02;100.00
7990;BME280;4040;42.848;23.034;2023-01-26T05:48:31;95120.88;;;0.08;100.00
7990;BME280;4040;42.848;23.034;2023-01-26T05:50:58;95119.19;;;0.04;100.00
7990;BME280;4040;42.848;23.034;2023-01-26T05:53:26;95114.56;;;0.01;100.00
7990;BME280;4040;42.848;23.034;2023-01-26T05:55:54;95115.06;;;-0.06;100.00
7990;BME280;4040;42.848;23.034;2023-01-26T05:58:22;95116.19;;;-0.07;100.00
7990;BME280;4040;42.848;23.034;2023-01-26T06:00:49;95122.03;;;-0.01;100.00
7990;BME280;4040;42.848;23.034;2023-01-26T06:03:16;95124.13;;;-0.07;100.00
7990;BME280;4040;42.848;23.034;2023-01-26T06:05:43;95119.75;;;-0.03;100.00
7990;BME280;4040;42.848;23.034;2023-01-26T06:08:17;95123.72;;;0.03;100.00
7990;BME280;4040;42.848;23.034;2023-01-26T06:10:45;95124.38;;;0.00;100.00
7990;BME280;4040;42.848;23.034;2023-01-26T06:13:13;95119.75;;;-0.03;100.00
7990;BME280;4040;42.848;23.034;2023-01-26T06:15:40;95116.13;;;0.02;100.00
7990;BME280;4040;42.848;23.034;2023-01-26T06:18:08;95116.25;;;0.05;100.00
7990;BME280;4040;42.848;23.034;2023-01-26T06:20:35;95093.91;;;-0.06;100.00
7990;BME280;4040;42.848;23.034;2023-01-26T06:23:02;95105.41;;;-0.02;100.00
7990;BME280;4040;42.848;23.034;2023-01-26T06:25:30;95104.97;;;0.08;100.00
7990;BME280;4040;42.848;23.034;2023-01-26T06:27:57;95097.03;;;0.08;100.00
7990;BME280;4040;42.848;23.034;2023-01-26T06:30:26;95083.81;;;0.08;100.00
7990;BME280;4040;42.848;23.034;2023-01-26T06:32:53;95000.94;;;-0.48;100.00
7990;BME280;4040;42.848;23.034;2023-01-26T06:35:20;95084.47;;;0.05;100.00
7990;BME280;4040;42.848;23.034;2023-01-26T06:37:48;95087.13;;;0.05;100.00
7990;BME280;4040;42.848;23.034;2023-01-26T06:40:16;95089.63;;;0.02;100.00
7990;BME280;4040;42.848;23.034;2023-01-26T06:42:47;95085.88;;;0.03;100.00
7990;BME280;4040;42.848;23.034;2023-01-26T06:45:15;95079.16;;;0.05;100.00
7990;BME280;4040;42.848;23.034;2023-01-26T06:47:47;95096.34;;;-0.01;100.00
7990;BME280;4040;42.848;23.034;2023-01-26T06:50:15;95088.84;;;0.01;100.00
7990;BME280;4040;42.848;23.034;2023-01-26T06:52:46;95091.31;;;0.06;100.00
7990;BME280;4040;42.848;23.034;2023-01-26T06:55:16;95092.59;;;0.00;100.00
7990;BME280;4040;42.848;23.034;2023-01-26T06:57:44;95093.47;;;0.04;100.00
7990;BME280;4040;42.848;23.034;2023-01-26T07:00:12;95085.34;;;0.09;100.00
7990;BME280;4040;42.848;23.034;2023-01-26T07:02:40;95087.13;;;0.17;100.00
7990;BME280;4040;42.848;23.034;2023-01-26T07:05:08;94984.63;;;-0.50;100.00
7990;BME280;4040;42.848;23.034;2023-01-26T07:07:36;95082.47;;;0.14;100.00
7990;BME280;4040;42.848;23.034;2023-01-26T07:10:04;95081.84;;;0.17;100.00
7990;BME280;4040;42.848;23.034;2023-01-26T07:12:39;95061.28;;;0.14;100.00
7990;BME280;4040;42.848;23.034;2023-01-26T07:15:08;95085.16;;;0.26;100.00
7990;BME280;4040;42.848;23.034;2023-01-26T07:17:36;95067.69;;;0.25;100.00
7990;BME280;4040;42.848;23.034;2023-01-26T07:20:04;95070.34;;;0.25;100.00
7990;BME280;4040;42.848;23.034;2023-01-26T07:22:32;95076.75;;;0.24;100.00
7990;BME280;4040;42.848;23.034;2023-01-26T07:25:00;95073.91;;;0.29;100.00
7990;BME280;4040;42.848;23.034;2023-01-26T07:27:27;95076.31;;;0.34;100.00
7990;BME280;4040;42.848;23.034;2023-01-26T07:29:54;95071.03;;;0.34;100.00
7990;BME280;4040;42.848;23.034;2023-01-26T07:32:21;95075.75;;;0.29;100.00
7990;BME280;4040;42.848;23.034;2023-01-26T07:34:49;95008.31;;;-0.09;100.00
7990;BME280;4040;42.848;23.034;2023-01-26T07:37:16;95083.94;;;0.36;100.00
7990;BME280;4040;42.848;23.034;2023-01-26T07:39:45;95071.69;;;0.31;100.00
7990;BME280;4040;42.848;23.034;2023-01-26T07:42:17;95051.38;;;0.11;100.00
7990;BME280;4040;42.848;23.034;2023-01-26T07:44:47;95077.00;;;0.31;100.00
7990;BME280;4040;42.848;23.034;2023-01-26T07:47:14;95077.66;;;0.40;100.00
7990;BME280;4040;42.848;23.034;2023-01-26T07:49:42;95065.28;;;0.44;100.00
7990;BME280;4040;42.848;23.034;2023-01-26T07:52:09;94982.50;;;-0.12;100.00
7990;BME280;4040;42.848;23.034;2023-01-26T07:54:36;95064.41;;;0.40;100.00
7990;BME280;4040;42.848;23.034;2023-01-26T07:57:05;95073.91;;;0.53;100.00
7990;BME280;4040;42.848;23.034;2023-01-26T07:59:33;95066.38;;;0.55;100.00
7990;BME280;4040;42.848;23.034;2023-01-26T08:02:00;95075.44;;;0.54;100.00
7990;BME280;4040;42.848;23.034;2023-01-26T08:04:27;95062.19;;;0.42;100.00
7990;BME280;4040;42.848;23.034;2023-01-26T08:06:55;95066.19;;;0.48;100.00
7990;BME280;4040;42.848;23.034;2023-01-26T08:09:22;95026.22;;;0.29;100.00
7990;BME280;4040;42.848;23.034;2023-01-26T08:11:51;95053.59;;;0.33;100.00
7990;BME280;4040;42.848;23.034;2023-01-26T08:14:19;95058.00;;;0.53;100.00
7990;BME280;4040;42.848;23.034;2023-01-26T08:16:47;95034.59;;;0.31;100.00
7990;BME280;4040;42.848;23.034;2023-01-26T08:19:14;95073.03;;;0.49;100.00
7990;BME280;4040;42.848;23.034;2023-01-26T08:21:41;95067.72;;;0.49;100.00
7990;BME280;4040;42.848;23.034;2023-01-26T08:24:10;95029.53;;;0.38;100.00
7990;BME280;4040;42.848;23.034;2023-01-26T08:26:37;95030.84;;;0.44;100.00
7990;BME280;4040;42.848;23.034;2023-01-26T08:29:04;94961.56;;;0.18;100.00
7990;BME280;4040;42.848;23.034;2023-01-26T08:31:33;95034.28;;;0.57;100.00
7990;BME280;4040;42.848;23.034;2023-01-26T08:34:01;95046.72;;;0.56;100.00
7990;BME280;4040;42.848;23.034;2023-01-26T08:36:28;95030.31;;;0.63;100.00
7990;BME280;4040;42.848;23.034;2023-01-26T08:38:56;95046.97;;;0.63;100.00
7990;BME280;4040;42.848;23.034;2023-01-26T08:41:23;95042.09;;;0.65;100.00
7990;BME280;4040;42.848;23.034;2023-01-26T08:43:50;95034.59;;;0.55;100.00
7990;BME280;4040;42.848;23.034;2023-01-26T08:46:18;95033.06;;;0.54;100.00
7990;BME280;4040;42.848;23.034;2023-01-26T08:48:47;95039.44;;;0.65;100.00
7990;BME280;4040;42.848;23.034;2023-01-26T08:51:14;95035.91;;;0.73;100.00
7990;BME280;4040;42.848;23.034;2023-01-26T08:53:42;95047.38;;;0.77;100.00
7990;BME280;4040;42.848;23.034;2023-01-26T08:56:10;95047.38;;;0.77;100.00
7990;BME280;4040;42.848;23.034;2023-01-26T08:58:38;95045.19;;;0.79;100.00
7990;BME280;4040;42.848;23.034;2023-01-26T09:01:06;95002.16;;;0.58;100.00
7990;BME280;4040;42.848;23.034;2023-01-26T09:03:33;95024.06;;;0.83;100.00
7990;BME280;4040;42.848;23.034;2023-01-26T09:06:03;95029.91;;;1.00;100.00
7990;BME280;4040;42.848;23.034;2023-01-26T09:08:31;94945.63;;;0.54;100.00
7990;BME280;4040;42.848;23.034;2023-01-26T09:10:59;95039.47;;;1.17;100.00
7990;BME280;4040;42.848;23.034;2023-01-26T09:13:26;95039.75;;;1.27;100.00
7990;BME280;4040;42.848;23.034;2023-01-26T09:15:53;95033.50;;;1.47;100.00
7990;BME280;4040;42.848;23.034;2023-01-26T09:18:21;95034.72;;;1.22;100.00
7990;BME280;4040;42.848;23.034;2023-01-26T09:20:48;95027.50;;;1.23;100.00
7990;BME280;4040;42.848;23.034;2023-01-26T09:23:17;95018.84;;;1.10;100.00
7990;BME280;4040;42.848;23.034;2023-01-26T09:25:45;95025.38;;;1.01;100.00
7990;BME280;4040;42.848;23.034;2023-01-26T09:28:12;94982.03;;;0.69;100.00
7990;BME280;4040;42.848;23.034;2023-01-26T09:30:39;95007.16;;;0.99;100.00
7990;BME280;4040;42.848;23.034;2023-01-26T09:33:07;94973.94;;;0.78;100.00
7990;BME280;4040;42.848;23.034;2023-01-26T09:35:34;94994.53;;;0.96;100.00
7990;BME280;4040;42.848;23.034;2023-01-26T09:38:01;94978.88;;;0.91;100.00
7990;BME280;4040;42.848;23.034;2023-01-26T09:40:36;94968.47;;;0.98;100.00
7990;BME280;4040;42.848;23.034;2023-01-26T09:43:15;94960.06;;;0.96;100.00
7990;BME280;4040;42.848;23.034;2023-01-26T09:45:55;94977.19;;;0.99;100.00
7990;BME280;4040;42.848;23.034;2023-01-26T09:48:30;94957.34;;;0.81;100.00
7990;BME280;4040;42.848;23.034;2023-01-26T09:51:04;94993.91;;;0.87;100.00
7990;BME280;4040;42.848;23.034;2023-01-26T09:53:39;94990.59;;;0.90;100.00
7990;BME280;4040;42.848;23.034;2023-01-26T09:56:14;94961.22;;;0.83;100.00
7990;BME280;4040;42.848;23.034;2023-01-26T09:58:46;94959.69;;;0.82;100.00
7990;BME280;4040;42.848;23.034;2023-01-26T10:01:21;94934.34;;;0.69;100.00
7990;BME280;4040;42.848;23.034;2023-01-26T10:04:00;94844.91;;;0.27;100.00
7990;BME280;4040;42.848;23.034;2023-01-26T10:06:29;94958.38;;;1.04;100.00
7990;BME280;4040;42.848;23.034;2023-01-26T10:09:00;94954.28;;;1.06;100.00
7990;BME280;4040;42.848;23.034;2023-01-26T10:11:32;94951.91;;;1.01;100.00
7990;BME280;4040;42.848;23.034;2023-01-26T10:14:08;94946.06;;;0.96;100.00
7990;BME280;4040;42.848;23.034;2023-01-26T10:16:38;94946.88;;;0.84;100.00
7990;BME280;4040;42.848;23.034;2023-01-26T10:19:12;94946.88;;;0.84;100.00
7990;BME280;4040;42.848;23.034;2023-01-26T10:21:43;94944.38;;;1.03;100.00
7990;BME280;4040;42.848;23.034;2023-01-26T10:24:12;94945.81;;;1.01;100.00
7990;BME280;4040;42.848;23.034;2023-01-26T10:26:41;94936.22;;;0.96;100.00
7990;BME280;4040;42.848;23.034;2023-01-26T10:29:12;94919.50;;;0.80;100.00
7990;BME280;4040;42.848;23.034;2023-01-26T10:31:40;94927.41;;;0.92;100.00
7990;BME280;4040;42.848;23.034;2023-01-26T10:34:10;94918.34;;;0.93;100.00
7990;BME280;4040;42.848;23.034;2023-01-26T10:36:40;94912.84;;;0.86;100.00
7990;BME280;4040;42.848;23.034;2023-01-26T10:39:09;94869.09;;;0.65;100.00
7990;BME280;4040;42.848;23.034;2023-01-26T10:41:37;94884.19;;;0.92;100.00
7990;BME280;4040;42.848;23.034;2023-01-26T10:44:22;94879.69;;;0.92;100.00
7990;BME280;4040;42.848;23.034;2023-01-26T10:47:02;94873.69;;;0.95;100.00
7990;BME280;4040;42.848;23.034;2023-01-26T10:49:30;94851.63;;;0.91;100.00
7990;BME280;4040;42.848;23.034;2023-01-26T10:52:15;94839.19;;;0.80;100.00
7990;BME280;4040;42.848;23.034;2023-01-26T10:54:43;94865.41;;;0.97;100.00
7990;BME280;4040;42.848;23.034;2023-01-26T10:57:16;94865.75;;;0.95;100.00
7990;BME280;4040;42.848;23.034;2023-01-26T10:59:52;94836.03;;;0.90;100.00
7990;BME280;4040;42.848;23.034;2023-01-26T11:02:23;94846.50;;;0.98;100.00
7990;BME280;4040;42.848;23.034;2023-01-26T11:05:03;94829.91;;;1.01;100.00
7990;BME280;4040;42.848;23.034;2023-01-26T11:07:32;94827.00;;;1.06;100.00
7990;BME280;4040;42.848;23.034;2023-01-26T11:10:23;94825.56;;;1.09;100.00
7990;BME280;4040;42.848;23.034;2023-01-26T11:12:51;94826.50;;;1.16;100.00
7990;BME280;4040;42.848;23.034;2023-01-26T11:15:35;94808.97;;;1.12;100.00
7990;BME280;4040;42.848;23.034;2023-01-26T11:18:12;94773.81;;;0.99;100.00
7990;BME280;4040;42.848;23.034;2023-01-26T11:20:47;94801.88;;;1.31;100.00
7990;BME280;4040;42.848;23.034;2023-01-26T11:23:23;94803.31;;;1.44;100.00
7990;BME280;4040;42.848;23.034;2023-01-26T11:26:19;94793.31;;;1.53;100.00
7990;BME280;4040;42.848;23.034;2023-01-26T11:28:59;94796.63;;;1.50;100.00
7990;BME280;4040;42.848;23.034;2023-01-26T11:31:39;94788.31;;;1.67;100.00
7990;BME280;4040;42.848;23.034;2023-01-26T11:34:19;94790.38;;;1.58;100.00
7990;BME280;4040;42.848;23.034;2023-01-26T11:36:55;94795.84;;;1.65;100.00
7990;BME280;4040;42.848;23.034;2023-01-26T11:39:29;94807.94;;;1.63;100.00
7990;BME280;4040;42.848;23.034;2023-01-26T11:42:12;94790.56;;;1.50;100.00
7990;BME280;4040;42.848;23.034;2023-01-26T11:44:54;94781.75;;;1.46;100.00
7990;BME280;4040;42.848;23.034;2023-01-26T11:47:38;94756.59;;;1.40;100.00
7990;BME280;4040;42.848;23.034;2023-01-26T11:50:19;94761.47;;;1.53;100.00
7990;BME280;4040;42.848;23.034;2023-01-26T11:52:58;94754.16;;;1.50;100.00
7990;BME280;4040;42.848;23.034;2023-01-26T11:55:40;94741.69;;;1.51;100.00
7990;BME280;4040;42.848;23.034;2023-01-26T11:58:21;94739.94;;;1.58;100.00
7990;BME280;4040;42.848;23.034;2023-01-26T12:00:55;94738.94;;;1.47;100.00
7990;BME280;4040;42.848;23.034;2023-01-26T12:03:31;94737.00;;;1.44;100.00
7990;BME280;4040;42.848;23.034;2023-01-26T12:06:03;94738.63;;;1.49;100.00
7990;BME280;4040;42.848;23.034;2023-01-26T12:08:35;94720.72;;;1.30;100.00
7990;BME280;4040;42.848;23.034;2023-01-26T12:11:08;94730.31;;;1.35;100.00
7990;BME280;4040;42.848;23.034;2023-01-26T12:13:54;94719.19;;;1.29;100.00
7990;BME280;4040;42.848;23.034;2023-01-26T12:16:33;94717.84;;;1.35;100.00
7990;BME280;4040;42.848;23.034;2023-01-26T12:19:10;94724.84;;;1.43;100.00
7990;BME280;4040;42.848;23.034;2023-01-26T12:21:42;94713.91;;;1.29;100.00
7990;BME280;4040;42.848;23.034;2023-01-26T12:24:14;94714.41;;;1.19;100.00
7990;BME280;4040;42.848;23.034;2023-01-26T12:26:47;94697.91;;;1.26;100.00
7990;BME280;4040;42.848;23.034;2023-01-26T12:29:21;94687.22;;;1.22;100.00
7990;BME280;4040;42.848;23.034;2023-01-26T12:31:56;94665.66;;;1.08;100.00
7990;BME280;4040;42.848;23.034;2023-01-26T12:34:27;94668.28;;;1.24;100.00
7990;BME280;4040;42.848;23.034;2023-01-26T12:37:20;94668.75;;;1.26;100.00
7990;BME280;4040;42.848;23.034;2023-01-26T12:39:57;94680.81;;;1.23;100.00
7990;BME280;4040;42.848;23.034;2023-01-26T12:42:32;94693.66;;;1.21;100.00
7990;BME280;4040;42.848;23.034;2023-01-26T12:45:07;94692.53;;;1.22;100.00
7990;BME280;4040;42.848;23.034;2023-01-26T12:47:37;94697.06;;;1.22;100.00
7990;BME280;4040;42.848;23.034;2023-01-26T12:50:16;94689.28;;;1.13;100.00
7990;BME280;4040;42.848;23.034;2023-01-26T12:52:52;94686.22;;;1.11;100.00
7990;BME280;4040;42.848;23.034;2023-01-26T12:55:23;94666.38;;;1.05;100.00
7990;BME280;4040;42.848;23.034;2023-01-26T12:57:54;94661.47;;;1.23;100.00
7990;BME280;4040;42.848;23.034;2023-01-26T13:00:26;94662.25;;;1.23;100.00
7990;BME280;4040;42.848;23.034;2023-01-26T13:02:58;94647.44;;;1.22;100.00
7990;BME280;4040;42.848;23.034;2023-01-26T13:05:31;94659.06;;;1.33;100.00
7990;BME280;4040;42.848;23.034;2023-01-26T13:11:40;94472.03;;;0.17;100.00
7990;BME280;4040;42.848;23.034;2023-01-26T13:14:24;94653.88;;;1.40;100.00
7990;BME280;4040;42.848;23.034;2023-01-26T13:16:51;94654.88;;;1.32;100.00
7990;BME280;4040;42.848;23.034;2023-01-26T13:19:35;94577.44;;;0.92;100.00
7990;BME280;4040;42.848;23.034;2023-01-26T13:22:47;94646.50;;;1.68;100.00
7990;BME280;4040;42.848;23.034;2023-01-26T13:25:17;94651.69;;;1.80;100.00
7990;BME280;4040;42.848;23.034;2023-01-26T13:27:48;94661.13;;;1.78;100.00
7990;BME280;4040;42.848;23.034;2023-01-26T13:30:42;94645.06;;;1.71;100.00
7990;BME280;4040;42.848;23.034;2023-01-26T13:33:14;94618.91;;;1.54;100.00